Time;durP1;ratioP1;P1;durP2;ratioP2;P2;SDS_P1;SDS_P2;PMS_P1;PMS_P2;Temp;Humidity;BMP_temperature;BMP_pressure;BME280_temperature;BME280_humidity;BME280_pressure;Samples;Min_cycle;Max_cycle;Signal;HPM_P1;HPM_P2
2022/11/16 04:01:30;;;;;;;1.20;1.05;;;18.10;51.90;;;;;;5470340;23;46116;-61
2022/11/16 04:03:56;;;;;;;1.52;1.20;;;18.10;51.90;;;;;;4910106;28;45552;-60
2022/11/16 04:25:37;;;;;;;1.25;0.80;;;18.10;52.00;;;;;;4918627;28;45602;-61
2022/11/16 04:28:12;;;;;;;1.40;1.27;;;18.10;51.90;;;;;;4948221;28;46933;-60
2022/11/16 04:38:52;;;;;;;1.10;0.80;;;18.00;51.90;;;;;;4936373;28;45362;-60
2022/11/16 04:44:02;;;;;;;1.02;0.93;;;18.00;51.90;;;;;;4946387;28;45489;-60
2022/11/16 04:49:11;;;;;;;1.30;0.85;;;18.00;51.90;;;;;;4952947;28;46723;-61
2022/11/16 04:51:37;;;;;;;0.90;0.80;;;18.00;51.90;;;;;;4954783;28;45660;-61
2022/11/16 04:54:02;;;;;;;1.15;1.00;;;18.00;51.90;;;;;;4947316;28;46227;-60
2022/11/16 04:56:28;;;;;;;1.10;0.82;;;18.00;52.50;;;;;;4899228;28;44718;-61
2022/11/16 04:58:54;;;;;;;1.25;0.95;;;18.00;51.90;;;;;;4948251;28;46825;-61
2022/11/16 05:02:06;;;;;;;1.30;1.05;;;18.00;51.90;;;;;;4927466;28;45458;-60
2022/11/16 05:04:05;;;;;;;1.80;1.15;;;17.90;51.80;;;;;;4949211;28;45514;-61
2022/11/16 05:06:30;;;;;;;1.63;0.98;;;18.00;51.90;;;;;;4950514;28;45062;-59
2022/11/16 05:08:56;;;;;;;1.08;0.98;;;18.00;51.90;;;;;;4937676;28;46298;-61
2022/11/16 05:11:22;;;;;;;1.13;1.02;;;18.00;51.90;;;;;;4934653;28;45498;-60
2022/11/16 05:13:48;;;;;;;1.08;0.98;;;18.00;51.90;;;;;;4953830;28;45394;-60
2022/11/16 05:16:13;;;;;;;1.27;1.10;;;18.00;51.90;;;;;;4930278;28;45585;-60
2022/11/16 05:18:39;;;;;;;1.60;1.20;;;17.90;51.80;;;;;;4948228;28;45472;-59
2022/11/16 05:21:04;;;;;;;1.20;1.10;;;17.90;51.90;;;;;;4925313;28;45379;-61
2022/11/16 05:26:14;;;;;;;1.52;1.00;;;17.90;51.90;;;;;;4934747;28;45314;-62
2022/11/16 05:28:40;;;;;;;1.08;0.98;;;17.90;51.90;;;;;;4897908;28;45095;-61
2022/11/16 05:31:05;;;;;;;1.52;1.10;;;17.90;52.00;;;;;;4914002;28;45368;-61
2022/11/16 05:33:31;;;;;;;0.98;0.90;;;17.80;51.90;;;;;;4953036;28;45439;-59
2022/11/16 05:35:56;;;;;;;1.40;1.30;;;17.90;51.90;;;;;;4945511;28;44925;-59
2022/11/16 05:38:22;;;;;;;1.67;1.10;;;17.80;51.90;;;;;;4932380;28;47134;-60
2022/11/16 05:40:47;;;;;;;1.50;1.30;;;17.90;51.90;;;;;;4934730;28;45470;-61
2022/11/16 05:43:13;;;;;;;0.90;0.80;;;17.80;51.90;;;;;;4937759;28;45306;-61
2022/11/16 05:45:38;;;;;;;1.15;1.00;;;17.80;51.90;;;;;;4944608;28;45730;-61
2022/11/16 05:48:04;;;;;;;1.10;1.00;;;17.80;51.90;;;;;;4934847;28;46147;-59
2022/11/16 05:50:30;;;;;;;1.25;1.10;;;17.80;51.90;;;;;;4951531;28;45415;-61
2022/11/16 05:52:55;;;;;;;0.93;0.82;;;17.80;51.90;;;;;;4947064;28;45304;-61
2022/11/16 05:55:21;;;;;;;1.20;1.10;;;17.90;52.00;;;;;;4934307;28;45213;-60
2022/11/16 05:57:46;;;;;;;1.30;1.20;;;17.80;52.00;;;;;;4938378;28;45584;-60
2022/11/16 06:00:13;;;;;;;1.05;1.00;;;17.80;51.90;;;;;;4914780;28;45516;-59
2022/11/16 06:02:38;;;;;;;1.38;1.27;;;17.80;52.00;;;;;;4932439;28;45121;-60
2022/11/16 06:05:04;;;;;;;1.85;1.35;;;17.80;51.90;;;;;;4939011;28;45589;-60
2022/11/16 06:07:30;;;;;;;0.80;0.80;;;17.80;52.00;;;;;;4931352;28;45329;-59
2022/11/16 06:09:55;;;;;;;0.85;0.80;;;17.80;52.00;;;;;;4932503;28;45241;-61
2022/11/16 06:12:21;;;;;;;1.42;1.17;;;17.80;51.90;;;;;;4931262;28;45696;-60
2022/11/16 06:14:47;;;;;;;1.33;1.00;;;17.80;51.90;;;;;;4929163;28;45151;-61
2022/11/16 06:17:15;;;;;;;1.73;0.93;;;17.80;51.90;;;;;;4938594;28;46425;-59
2022/11/16 06:19:40;;;;;;;1.73;1.40;;;17.80;51.90;;;;;;4931044;28;45828;-59
2022/11/16 06:22:06;;;;;;;1.35;1.10;;;17.80;52.00;;;;;;4930053;28;45623;-60
2022/11/16 06:24:32;;;;;;;1.35;1.15;;;17.80;52.00;;;;;;4938526;28;45200;-60
2022/11/16 06:26:57;;;;;;;1.20;1.00;;;17.80;52.00;;;;;;4958165;28;45519;-60
2022/11/16 06:29:23;;;;;;;1.60;1.20;;;17.80;52.00;;;;;;4915738;28;45197;-61
2022/11/16 06:31:49;;;;;;;1.10;1.00;;;17.70;51.90;;;;;;4933520;28;45217;-62
2022/11/16 06:34:14;;;;;;;1.23;0.98;;;17.80;52.00;;;;;;4913219;28;45642;-61
2022/11/16 06:36:40;;;;;;;1.35;1.15;;;17.70;51.90;;;;;;4936359;28;45855;-62
2022/11/16 06:39:06;;;;;;;1.40;1.25;;;17.70;51.90;;;;;;4938202;28;45169;-61
2022/11/16 06:41:31;;;;;;;1.42;1.23;;;17.70;51.90;;;;;;4950109;28;45533;-59
2022/11/16 06:43:57;;;;;;;1.10;1.00;;;17.70;51.90;;;;;;4931039;28;45011;-60
2022/11/16 06:46:23;;;;;;;1.35;1.25;;;17.70;52.00;;;;;;4939815;28;45679;-61
2022/11/16 06:48:49;;;;;;;1.25;1.10;;;17.70;52.00;;;;;;4937823;28;45444;-61
2022/11/16 06:51:15;;;;;;;1.08;0.98;;;17.70;52.00;;;;;;4938619;28;46123;-60
2022/11/16 06:53:40;;;;;;;1.80;1.30;;;17.70;52.00;;;;;;4929529;28;45236;-60
2022/11/16 06:56:06;;;;;;;1.40;1.20;;;17.70;51.90;;;;;;4917313;28;45565;-60
2022/11/16 06:58:31;;;;;;;1.23;1.13;;;17.70;51.90;;;;;;4935043;28;45287;-61
2022/11/16 07:01:03;;;;;;;1.17;0.93;;;17.70;52.00;;;;;;4932128;28;45235;-61
2022/11/16 07:03:30;;;;;;;;;;;17.70;52.00;;;;;;4950435;28;45386;-61
2022/11/16 07:05:55;;;;;;;;;;;17.70;52.10;;;;;;4934554;28;45519;-62
2022/11/16 07:08:21;;;;;;;;;;;17.60;51.10;;;;;;4952724;28;45424;-62
2022/11/16 07:10:46;;;;;;;;;;;17.50;50.80;;;;;;4933160;28;44825;-63
2022/11/16 07:13:11;;;;;;;;;;;17.40;50.70;;;;;;4937784;28;45196;-64
2022/11/16 07:15:37;;;;;;;;;;;17.20;50.90;;;;;;4951526;28;45031;-64
2022/11/16 07:18:03;;;;;;;;;;;17.20;51.00;;;;;;4950750;28;45344;-64
2022/11/16 07:20:29;;;;;;;;;;;17.00;51.20;;;;;;4953216;28;45264;-63
2022/11/16 07:22:54;;;;;;;;;;;17.00;51.60;;;;;;4940988;28;45273;-63
2022/11/16 07:25:20;;;;;;;;;;;17.00;51.60;;;;;;4954500;28;46595;-63
2022/11/16 07:27:45;;;;;;;;;;;17.10;52.40;;;;;;4935271;28;45001;-63
2022/11/16 07:30:11;;;;;;;;;;;17.30;51.60;;;;;;4953135;28;44845;-61
2022/11/16 07:32:38;;;;;;;;;;;17.50;51.20;;;;;;4951266;28;44995;-63
2022/11/16 07:35:04;;;;;;;;;;;17.70;50.90;;;;;;4950227;28;46810;-63
2022/11/16 07:37:30;;;;;;;;;;;17.90;50.60;;;;;;4939216;28;45430;-64
2022/11/16 07:39:55;;;;;;;;;;;18.10;50.40;;;;;;4954944;28;45378;-62
2022/11/16 07:42:20;;;;;;;;;;;18.30;50.10;;;;;;4936940;28;45570;-64
2022/11/16 07:44:46;;;;;;;;;;;18.50;49.90;;;;;;4954748;28;46543;-61
2022/11/16 07:47:11;;;;;;;;;;;18.60;49.80;;;;;;4946930;28;45372;-65
2022/11/16 07:49:37;;;;;;;;;;;18.80;49.70;;;;;;4951274;28;45495;-65
2022/11/16 07:52:03;;;;;;;;;;;19.00;49.50;;;;;;4954063;28;45323;-64
2022/11/16 07:54:28;;;;;;;;;;;19.10;49.30;;;;;;4938790;28;46438;-63
2022/11/16 07:56:54;;;;;;;;;;;19.30;49.10;;;;;;4953428;28;45534;-61
2022/11/16 07:59:19;;;;;;;;;;;19.40;49.00;;;;;;4943829;28;44745;-64
2022/11/16 08:01:48;;;;;;;;;;;19.60;48.90;;;;;;4935183;28;45303;-66
2022/11/16 08:04:14;;;;;;;;;;;19.70;48.70;;;;;;4952669;28;45810;-63
2022/11/16 08:06:42;;;;;;;;;;;19.90;48.70;;;;;;4938852;28;45724;-64
2022/11/16 08:09:08;;;;;;;;;;;20.00;48.60;;;;;;4926157;28;45307;-61
2022/11/16 08:11:33;;;;;;;;;;;20.10;48.50;;;;;;4937032;28;45530;-62
2022/11/16 08:13:59;;;;;;;;;;;20.30;48.40;;;;;;4957655;28;45297;-62
2022/11/16 08:16:24;;;;;;;;;;;20.40;48.20;;;;;;4952350;28;45507;-63
2022/11/16 08:18:50;;;;;;;;;;;20.50;48.20;;;;;;4936599;28;45183;-62
2022/11/16 08:21:16;;;;;;;;;;;20.60;48.00;;;;;;4936512;28;45326;-62
2022/11/16 08:23:41;;;;;;;;;;;20.70;47.90;;;;;;4954890;28;47049;-66
2022/11/16 08:26:08;;;;;;;;;;;20.80;47.70;;;;;;4952620;28;45262;-63
2022/11/16 08:28:33;;;;;;;;;;;20.90;47.60;;;;;;4919485;28;45776;-64
2022/11/16 08:30:59;;;;;;;;;;;21.00;47.60;;;;;;4941084;28;44974;-65
2022/11/16 08:33:25;;;;;;;;;;;21.20;47.40;;;;;;4954095;28;46401;-64
2022/11/16 08:35:51;;;;;;;;;;;21.30;47.30;;;;;;4937228;28;44938;-63
2022/11/16 08:38:17;;;;;;;;;;;21.40;47.30;;;;;;4941168;28;44851;-62
2022/11/16 08:40:43;;;;;;;;;;;21.50;47.00;;;;;;4951884;28;45026;-64
2022/11/16 08:43:09;;;;;;;;;;;21.60;46.90;;;;;;4943437;28;45556;-66
2022/11/16 08:45:35;;;;;;;;;;;21.70;47.50;;;;;;4961357;28;45481;-63
2022/11/16 08:48:01;;;;;;;;;;;21.80;46.70;;;;;;4944224;28;45387;-63
2022/11/16 08:50:26;;;;;;;;;;;21.90;46.60;;;;;;4953841;28;44951;-64
2022/11/16 08:52:51;;;;;;;;;;;22.00;46.50;;;;;;4941829;28;45345;-64
2022/11/16 08:55:17;;;;;;;;;;;22.10;46.40;;;;;;4951653;28;46330;-61
2022/11/16 08:57:43;;;;;;;;;;;22.20;46.40;;;;;;4946484;28;45246;-66
2022/11/16 09:00:10;;;;;;;;;;;22.30;46.30;;;;;;4953656;28;44906;-64
2022/11/16 09:02:35;;;;;;;;;;;22.30;46.20;;;;;;4949893;28;45539;-63
2022/11/16 09:05:01;;;;;;;;;;;22.40;46.00;;;;;;4953174;28;45461;-65
2022/11/16 09:07:26;;;;;;;;;;;22.50;46.00;;;;;;4924361;28;45463;-64
2022/11/16 09:09:52;;;;;;;;;;;22.50;45.80;;;;;;4954176;28;45480;-60
2022/11/16 09:12:17;;;;;;;;;;;22.60;45.70;;;;;;4933590;28;45349;-65
2022/11/16 09:14:43;;;;;;;;;;;22.60;45.70;;;;;;4952617;28;45237;-65
2022/11/16 09:17:08;;;;;;;;;;;22.70;45.70;;;;;;4909333;28;45118;-64
2022/11/16 09:19:34;;;;;;;;;;;22.70;45.60;;;;;;4936002;28;45168;-64
2022/11/16 09:21:59;;;;;;;;;;;22.80;45.50;;;;;;4953566;28;47241;-65
2022/11/16 09:24:24;;;;;;;;;;;22.80;45.50;;;;;;4953466;28;45531;-63
2022/11/16 09:26:50;;;;;;;;;;;22.90;45.40;;;;;;4957732;28;45041;-64
2022/11/16 09:29:15;;;;;;;;;;;22.90;45.40;;;;;;4952995;28;45408;-63
2022/11/16 09:31:41;;;;;;;;;;;22.90;45.30;;;;;;4953516;28;46733;-65
2022/11/16 09:34:07;;;;;;;;;;;23.00;45.90;;;;;;4952918;28;45126;-66
2022/11/16 09:36:32;;;;;;;;;;;23.10;45.30;;;;;;4945711;28;45480;-62
2022/11/16 09:38:58;;;;;;;;;;;23.00;45.10;;;;;;4951569;28;45498;-64
2022/11/16 09:41:29;;;;;;;;;;;23.10;45.10;;;;;;4957426;28;45718;-63
2022/11/16 09:43:57;;;;;;;;;;;23.20;45.20;;;;;;4953509;28;45444;-63
2022/11/16 09:46:52;;;;;;;;;;;23.20;45.10;;;;;;4932699;28;44992;-62
2022/11/16 09:49:18;;;;;;;;;;;23.30;45.10;;;;;;4932822;28;45498;-64
2022/11/16 09:51:45;;;;;;;;;;;23.30;45.00;;;;;;4951426;28;45491;-65
2022/11/16 09:54:11;;;;;;;;;;;23.40;45.00;;;;;;4935698;28;45180;-63
2022/11/16 09:56:37;;;;;;;;;;;23.40;44.90;;;;;;4935470;28;45108;-62
2022/11/16 09:59:22;;;;;;;;;;;23.50;44.90;;;;;;4939092;28;45246;-64
2022/11/16 10:01:54;;;;;;;;;;;23.50;44.70;;;;;;4950432;28;45315;-66
2022/11/16 10:04:19;;;;;;;;;;;23.60;44.60;;;;;;4940231;28;45189;-63
2022/11/16 10:06:58;;;;;;;;;;;23.60;44.50;;;;;;4951702;28;45392;-64
2022/11/16 10:09:24;;;;;;;;;;;23.70;44.50;;;;;;4943500;28;45033;-64
2022/11/16 10:11:50;;;;;;;;;;;23.70;44.40;;;;;;4933679;28;45284;-62
2022/11/16 10:14:18;;;;;;;;;;;23.70;44.30;;;;;;4951872;28;44919;-65
2022/11/16 10:16:46;;;;;;;;;;;23.80;44.40;;;;;;4947566;28;45478;-63
2022/11/16 10:19:25;;;;;;;;;;;23.80;44.30;;;;;;4914882;28;45202;-62
2022/11/16 10:21:54;;;;;;;;;;;23.90;44.30;;;;;;4920444;28;45525;-64
2022/11/16 10:24:24;;;;;;;;;;;23.90;44.30;;;;;;4928554;28;45166;-66
2022/11/16 10:26:55;;;;;;;;;;;23.90;44.30;;;;;;4952675;28;45220;-63
2022/11/16 10:29:45;;;;;;;;;;;24.00;44.30;;;;;;4951644;28;45011;-62
2022/11/16 10:32:14;;;;;;;;;;;24.00;44.10;;;;;;4928607;28;47313;-62
2022/11/16 10:34:52;;;;;;;;;;;24.00;44.10;;;;;;4951276;28;45169;-68
2022/11/16 10:37:17;;;;;;;;;;;24.00;44.10;;;;;;4959763;28;45583;-64
2022/11/16 10:39:43;;;;;;;;;;;24.10;44.10;;;;;;4939911;28;45283;-62
2022/11/16 10:42:09;;;;;;;;;;;24.10;44.10;;;;;;4909345;28;46862;-62
2022/11/16 10:44:40;;;;;;;;;;;24.10;44.00;;;;;;4933424;28;45529;-62
2022/11/16 10:47:20;;;;;;;;;;;24.10;43.90;;;;;;4937904;28;45431;-65
2022/11/16 10:49:52;;;;;;;;;;;24.20;44.10;;;;;;4936108;28;44863;-62
2022/11/16 10:52:17;;;;;;;;;;;24.20;44.50;;;;;;4945179;28;45609;-63
2022/11/16 10:54:43;;;;;;;;;;;24.30;43.90;;;;;;4955506;28;45157;-65
2022/11/16 10:57:12;;;;;;;;;;;24.30;43.80;;;;;;4935571;28;45346;-65
2022/11/16 10:59:48;;;;;;;;;;;24.30;43.80;;;;;;4950731;28;44741;-65
2022/11/16 11:02:27;;;;;;;;;;;24.30;43.80;;;;;;4933571;28;45542;-63
2022/11/16 11:05:03;;;;;;;;;;;24.40;43.80;;;;;;4954062;28;45044;-63
2022/11/16 11:07:29;;;;;;;;;;;24.40;43.80;;;;;;4950721;28;45367;-64
2022/11/16 11:09:54;;;;;;;;;;;24.40;43.60;;;;;;4936573;28;45280;-63
2022/11/16 11:12:38;;;;;;;;;;;24.50;43.60;;;;;;4953635;28;46173;-64
2022/11/16 11:15:10;;;;;;;;;;;24.50;44.20;;;;;;4942349;28;45208;-63
2022/11/16 11:17:37;;;;;;;;;;;24.50;43.70;;;;;;4954888;28;45269;-63
2022/11/16 11:20:22;;;;;;;;;;;24.50;43.60;;;;;;4935290;28;45399;-64
2022/11/16 11:22:54;;;;;;;;;;;24.50;43.50;;;;;;4917167;28;45714;-64
2022/11/16 11:25:21;;;;;;;;;;;24.50;43.50;;;;;;4929613;28;44871;-63
2022/11/16 11:27:46;;;;;;;;;;;24.50;43.50;;;;;;4934080;28;44774;-62
2022/11/16 11:30:17;;;;;;;;;;;24.60;43.50;;;;;;4953016;28;45146;-60
2022/11/16 11:32:43;;;;;;;;;;;24.60;43.50;;;;;;4938947;28;45747;-64
2022/11/16 11:35:20;;;;;;;;;;;24.60;43.50;;;;;;4941568;28;45406;-65
2022/11/16 11:37:47;;;;;;;;;;;24.60;43.40;;;;;;4950718;28;45453;-63
2022/11/16 11:40:17;;;;;;;;;;;24.70;43.40;;;;;;4926607;28;45487;-63
2022/11/16 11:42:50;;;;;;;;;;;24.70;43.40;;;;;;4935566;28;45468;-67
2022/11/16 11:45:15;;;;;;;;;;;24.70;43.30;;;;;;4955431;28;45316;-62
2022/11/16 11:47:43;;;;;;;;;;;24.70;43.20;;;;;;4953513;28;45297;-63
2022/11/16 11:50:11;;;;;;;;;;;24.70;43.20;;;;;;4925627;28;45318;-63
2022/11/16 11:52:38;;;;;;;;;;;24.70;43.20;;;;;;4940939;28;47032;-62
2022/11/16 11:55:04;;;;;;;;;;;24.70;43.20;;;;;;4939056;28;45390;-64
2022/11/16 11:57:33;;;;;;;;;;;24.70;43.30;;;;;;4939671;28;45238;-62
2022/11/16 11:59:59;;;;;;;;;;;24.70;43.20;;;;;;4938756;28;45414;-60
2022/11/16 12:02:27;;;;;;;;;;;24.70;43.20;;;;;;4928556;28;46337;-61
2022/11/16 12:05:04;;;;;;;;;;;24.70;43.20;;;;;;4957526;28;45165;-61
2022/11/16 12:07:39;;;;;;;;;;;24.80;43.30;;;;;;4933462;28;44719;-63
2022/11/16 12:10:08;;;;;;;;;;;24.80;43.30;;;;;;4947134;28;45559;-60
2022/11/16 12:12:41;;;;;;;;;;;24.80;43.30;;;;;;4939859;28;47066;-63
2022/11/16 12:15:06;;;;;;;;;;;24.80;43.30;;;;;;4960708;28;44791;-63
2022/11/16 12:17:50;;;;;;;;;;;24.80;43.30;;;;;;4955803;28;45137;-60
2022/11/16 12:20:19;;;;;;;;;;;24.80;43.30;;;;;;4965890;28;45188;-60
2022/11/16 12:22:59;;;;;;;;;;;24.90;43.30;;;;;;4956858;28;46449;-60
2022/11/16 12:25:28;;;;;;;;;;;24.90;43.30;;;;;;4956043;28;45457;-59
2022/11/16 12:28:13;;;;;;;;;;;25.00;43.20;;;;;;4936192;28;45095;-60
2022/11/16 12:30:44;;;;;;;;;;;25.00;43.20;;;;;;4953510;28;45745;-63
2022/11/16 12:33:12;;;;;;;;;;;25.00;43.10;;;;;;4938151;28;45647;-60
2022/11/16 12:35:38;;;;;;;;;;;25.10;43.00;;;;;;4952649;28;45340;-61
2022/11/16 12:38:09;;;;;;;;;;;25.10;43.10;;;;;;4956874;28;45581;-62
2022/11/16 12:40:53;;;;;;;;;;;25.10;43.10;;;;;;4957649;28;44953;-58
2022/11/16 12:43:30;;;;;;;;;;;25.10;43.10;;;;;;4954063;28;45674;-59
2022/11/16 12:45:58;;;;;;;;;;;25.10;43.20;;;;;;4935636;28;44789;-62
2022/11/16 12:48:38;;;;;;;;;;;25.10;43.10;;;;;;4957899;28;45243;-61
2022/11/16 12:51:22;;;;;;;;;;;25.10;43.20;;;;;;4939434;28;45480;-62
2022/11/16 12:53:54;;;;;;;;;;;25.10;43.10;;;;;;4934852;28;46476;-62
2022/11/16 12:56:22;;;;;;;;;;;25.10;43.20;;;;;;4955309;28;45243;-64
2022/11/16 12:58:54;;;;;;;;;;;25.10;43.20;;;;;;4941396;28;45229;-61
2022/11/16 13:01:22;;;;;;;;;;;25.10;43.20;;;;;;4956792;28;45243;-63
2022/11/16 13:03:54;;;;;;;;;;;25.10;43.20;;;;;;4924344;28;45333;-62
2022/11/16 13:06:24;;;;;;;;;;;25.10;43.20;;;;;;4934284;28;45323;-63
2022/11/16 13:09:08;;;;;;;;;;;25.10;43.30;;;;;;4950455;28;45298;-63
2022/11/16 13:11:37;;;;;;;;;;;25.10;43.30;;;;;;4953127;28;45603;-62
2022/11/16 13:14:03;;;;;;;;;;;25.20;43.30;;;;;;4939924;28;46274;-63
2022/11/16 13:16:29;;;;;;;;;;;25.20;43.20;;;;;;4941456;28;45273;-62
2022/11/16 13:18:54;;;;;;;;;;;25.20;43.30;;;;;;4956462;28;45371;-63
2022/11/16 13:21:25;;;;;;;;;;;25.30;43.20;;;;;;4940773;28;44698;-64
2022/11/16 13:24:06;;;;;;;;;;;25.30;43.20;;;;;;4955976;28;45807;-62
2022/11/16 13:26:34;;;;;;;;;;;25.30;43.10;;;;;;4950267;28;45414;-68
2022/11/16 13:29:03;;;;;;;;;;;25.40;43.20;;;;;;4953708;28;45538;-63
2022/11/16 13:31:47;;;;;;;;;;;25.40;43.10;;;;;;4937988;28;45308;-64
2022/11/16 13:34:21;;;;;;;;;;;25.40;43.20;;;;;;4937425;28;45912;-63
2022/11/16 13:36:47;;;;;;;;;;;25.40;43.10;;;;;;4933690;28;45448;-63
2022/11/16 13:39:13;;;;;;;;;;;25.40;43.10;;;;;;4947546;28;45249;-63
2022/11/16 13:41:39;;;;;;;;;;;25.40;43.10;;;;;;4957021;28;46014;-62
2022/11/16 13:44:19;;;;;;;;;;;25.40;43.20;;;;;;4956360;28;46197;-61
2022/11/16 13:46:46;;;;;;;;;;;25.40;43.20;;;;;;4953862;28;45189;-62
2022/11/16 13:49:41;;;;;;;;;;;25.40;43.20;;;;;;4960383;28;45297;-65
2022/11/16 13:52:07;;;;;;;;;;;25.40;43.90;;;;;;4919391;28;45441;-63
2022/11/16 13:54:36;;;;;;;;;;;25.40;43.30;;;;;;4922759;28;45767;-61
2022/11/16 13:57:03;;;;;;;;;;;25.40;43.30;;;;;;4940052;28;45172;-62
2022/11/16 13:59:29;;;;;;;;;;;25.40;43.30;;;;;;4949159;28;45430;-64
2022/11/16 14:01:56;;;;;;;;;;;25.40;43.30;;;;;;4940259;28;45031;-63
2022/11/16 14:04:36;;;;;;;;;;;25.40;43.40;;;;;;4956578;28;46362;-61
2022/11/16 14:07:02;;;;;;;;;;;25.40;43.30;;;;;;4934444;28;45137;-63
2022/11/16 14:09:40;;;;;;;;;;;25.40;43.40;;;;;;4940171;28;45277;-59
2022/11/16 14:12:24;;;;;;;;;;;25.40;43.40;;;;;;4952253;28;45394;-64
2022/11/16 14:15:02;;;;;;;;;;;25.50;43.40;;;;;;4948979;28;45446;-60
2022/11/16 14:17:47;;;;;;;;;;;25.50;43.40;;;;;;4944248;28;45747;-62
2022/11/16 14:20:13;;;;;;;;;;;25.50;43.40;;;;;;4951064;28;45240;-62
2022/11/16 14:22:38;;;;;;;;;;;25.50;43.30;;;;;;4937349;28;45185;-64
2022/11/16 14:25:16;;;;;;;;;;;25.50;43.30;;;;;;4955020;28;45206;-63
2022/11/16 14:27:44;;;;;;;;;;;25.60;43.40;;;;;;4933396;28;45707;-63
2022/11/16 14:30:23;;;;;;;;;;;25.50;43.30;;;;;;4934068;28;45037;-59
2022/11/16 14:32:49;;;;;;;;;;;25.50;43.30;;;;;;4944498;28;45198;-60
2022/11/16 14:35:26;;;;;;;;;;;25.50;43.40;;;;;;4930964;28;46550;-60
2022/11/16 14:38:01;;;;;;;;;;;25.50;43.50;;;;;;4934754;28;45491;-62
2022/11/16 14:40:27;;;;;;;;;;;25.50;43.50;;;;;;4939717;28;44851;-61
2022/11/16 14:42:54;;;;;;;;;;;25.50;43.60;;;;;;4954831;28;45209;-57
2022/11/16 14:45:27;;;;;;;;;;;25.50;43.60;;;;;;4941982;28;45331;-59
2022/11/16 14:47:59;;;;;;;;;;;25.50;43.70;;;;;;4934660;28;45374;-65
2022/11/16 14:50:26;;;;;;;;;;;25.50;43.70;;;;;;4943291;28;45675;-63
2022/11/16 14:52:52;;;;;;;;;;;25.50;43.80;;;;;;4920586;28;45448;-63
2022/11/16 14:55:21;;;;;;;;;;;25.50;43.80;;;;;;4944839;28;45519;-60
2022/11/16 14:57:47;;;;;;;;;;;25.50;43.80;;;;;;4933016;28;45261;-64
2022/11/16 15:00:16;;;;;;;;;;;25.50;43.90;;;;;;4941973;28;45305;-60
2022/11/16 15:02:43;;;;;;;;;;;25.50;44.00;;;;;;4944580;28;45197;-62
2022/11/16 15:05:12;;;;;;;;;;;25.50;44.10;;;;;;4933101;28;45456;-63
2022/11/16 15:07:37;;;;;;;;;;;25.50;44.10;;;;;;4935477;28;45629;-65
2022/11/16 15:10:03;;;;;;;;;;;25.50;44.10;;;;;;4937530;28;45498;-63
2022/11/16 15:12:40;;;;;;;;;;;25.50;44.10;;;;;;4923421;28;45230;-65
2022/11/16 15:15:09;;;;;;;;;;;25.50;44.20;;;;;;4931949;28;45155;-63
2022/11/16 15:17:34;;;;;;;;;;;25.50;44.20;;;;;;4948003;28;45504;-62
2022/11/16 15:20:01;;;;;;;;;;;25.50;44.20;;;;;;4940147;28;45635;-62
2022/11/16 15:22:30;;;;;;;;;;;25.50;44.20;;;;;;4950350;28;45760;-60
2022/11/16 15:24:56;;;;;;;;;;;25.50;44.10;;;;;;4935947;28;45684;-62
2022/11/16 15:27:37;;;;;;;;;;;25.50;44.10;;;;;;4947504;28;45252;-64
2022/11/16 15:30:11;;;;;;;;;;;25.60;44.20;;;;;;4938391;28;45367;-64
2022/11/16 15:32:39;;;;;;;;;;;25.60;44.10;;;;;;4939089;28;45173;-62
2022/11/16 15:35:04;;;;;;;;;;;25.60;44.00;;;;;;4955771;28;46392;-61
2022/11/16 15:37:30;;;;;;;;;;;25.70;44.10;;;;;;4953513;28;45272;-63
2022/11/16 15:39:59;;;;;;;;;;;25.60;44.10;;;;;;4939368;28;45193;-61
2022/11/16 15:42:25;;;;;;;;;;;25.70;44.20;;;;;;4957990;28;45532;-62
2022/11/16 15:44:50;;;;;;;;;;;25.70;44.30;;;;;;4956480;28;46196;-64
2022/11/16 15:47:16;;;;;;;;;;;25.70;44.20;;;;;;4952488;28;45402;-61
2022/11/16 15:49:42;;;;;;;;;;;25.70;44.10;;;;;;4942572;28;45462;-63
2022/11/16 15:52:09;;;;;;;;;;;25.70;44.10;;;;;;4956357;28;45173;-61
2022/11/16 15:57:19;;;;;;;;;;;25.80;44.20;;;;;;4937168;28;45505;-62
2022/11/16 15:59:48;;;;;;;;;;;25.70;44.10;;;;;;4955901;28;44581;-63
2022/11/16 16:02:20;;;;;;;;;;;25.80;44.10;;;;;;4929305;28;45341;-59
2022/11/16 16:04:45;;;;;;;;;;;25.80;44.10;;;;;;4939814;28;46365;-62
2022/11/16 16:07:31;;;;;;;;;;;25.80;44.70;;;;;;4943119;28;45241;-63
2022/11/16 16:10:10;;;;;;;;;;;25.80;44.10;;;;;;4957558;28;45302;-62
2022/11/16 16:12:45;;;;;;;;;;;25.80;44.10;;;;;;4950944;28;45229;-63
2022/11/16 16:15:23;;;;;;;;;;;25.80;44.00;;;;;;4936562;28;45472;-62
2022/11/16 16:17:49;;;;;;;;;;;25.90;44.10;;;;;;4951857;28;45248;-64
2022/11/16 16:20:18;;;;;;;;;;;25.90;44.10;;;;;;4955560;28;45427;-63
2022/11/16 16:22:44;;;;;;;;;;;25.90;44.00;;;;;;4935616;28;45340;-63
2022/11/16 16:25:27;;;;;;;;;;;25.90;44.10;;;;;;4934350;28;46426;-67
2022/11/16 16:27:53;;;;;;;;;;;25.90;44.00;;;;;;4955343;28;44698;-62
2022/11/16 16:30:18;;;;;;;;;;;25.80;44.10;;;;;;4937843;28;45319;-64
2022/11/16 16:32:46;;;;;;;;;;;25.70;44.20;;;;;;4938875;28;45249;-61
2022/11/16 16:35:15;;;;;;;;;;;25.60;44.30;;;;;;4938527;28;45407;-62
2022/11/16 16:37:40;;;;;;;;;;;25.50;44.50;;;;;;4954436;28;45279;-62
2022/11/16 16:40:06;;;;;;;;;;;25.40;44.60;;;;;;4956228;28;45198;-61
2022/11/16 16:42:31;;;;;;;;;;;25.30;44.80;;;;;;4952107;28;45205;-62
2022/11/16 16:44:57;;;;;;;;;;;25.20;44.90;;;;;;4927968;28;45435;-61
2022/11/16 16:47:23;;;;;;;;;;;25.20;45.00;;;;;;4946690;28;45312;-64
2022/11/16 16:49:48;;;;;;;;;;;25.10;45.10;;;;;;4953507;28;45471;-63
2022/11/16 16:52:14;;;;;;;;;;;25.00;45.20;;;;;;4943925;28;45201;-60
2022/11/16 16:54:39;;;;;;;;;;;25.00;45.30;;;;;;4950650;28;46193;-63
2022/11/16 16:57:05;;;;;;;;;;;24.90;45.40;;;;;;4932375;28;45443;-62
2022/11/16 16:59:30;;;;;;;;;;;24.80;45.60;;;;;;4956500;28;45405;-61
2022/11/16 17:01:56;;;;;;;;;;;24.70;45.70;;;;;;4935646;28;44829;-60
2022/11/16 17:04:22;;;;;;;;;;;24.60;45.90;;;;;;4952772;28;45358;-61
2022/11/16 17:06:49;;;;;;;;;;;24.60;45.90;;;;;;4953518;28;45788;-61
2022/11/16 17:09:14;;;;;;;;;;;24.50;46.00;;;;;;4944469;28;45207;-61
2022/11/16 17:11:40;;;;;;;;;;;24.40;46.10;;;;;;4953251;28;45469;-63
2022/11/16 17:14:06;;;;;;;;;;;24.40;46.30;;;;;;4955821;28;45049;-62
2022/11/16 17:16:32;;;;;;;;;;;24.30;46.30;;;;;;4951299;28;45892;-63
2022/11/16 17:18:58;;;;;;;;;;;24.20;46.50;;;;;;4935714;28;45283;-61
2022/11/16 17:21:23;;;;;;;;;;;24.10;46.50;;;;;;4952799;28;45699;-62
2022/11/16 17:23:49;;;;;;;;;;;24.10;46.70;;;;;;4954888;28;45370;-62
2022/11/16 17:26:14;;;;;;;;;;;24.00;47.40;;;;;;4940065;28;45570;-61
2022/11/16 17:28:40;;;;;;;;;;;23.90;46.90;;;;;;4947203;28;46054;-60
2022/11/16 17:31:06;;;;;;;;;;;23.90;47.00;;;;;;4935768;28;45648;-61
2022/11/16 17:33:35;;;;;;;;;;;23.80;47.10;;;;;;4932434;28;45529;-61
2022/11/16 17:36:02;;;;;;;;;;;23.70;47.10;;;;;;4937898;28;46183;-61
2022/11/16 17:38:37;;;;;;;;;;;23.70;47.20;;;;;;4919234;28;45410;-61
2022/11/16 17:41:06;;;;;;;;;;;23.70;47.20;;;;;;4934466;28;45504;-60
2022/11/16 17:43:32;;;;;;;;;;;23.60;47.30;;;;;;4956789;28;45418;-60
2022/11/16 17:46:04;;;;;;;;;;;23.50;47.30;;;;;;4936927;28;45778;-60
2022/11/16 17:48:30;;;;;;;;;;;23.50;47.30;;;;;;4935866;28;44677;-62
2022/11/16 17:50:56;;;;;;;;;;;23.50;47.40;;;;;;4936060;28;45467;-60
2022/11/16 17:53:22;;;;;;;;;;;23.40;47.50;;;;;;4941937;28;45581;-61
2022/11/16 17:55:48;;;;;;;;;;;23.40;47.60;;;;;;4940813;28;44862;-61
2022/11/16 17:58:13;;;;;;;;;;;23.30;47.70;;;;;;4953625;28;44637;-62
2022/11/16 18:00:39;;;;;;;;;;;23.30;47.80;;;;;;4934586;28;45202;-62
2022/11/16 18:03:05;;;;;;;;;;;23.20;47.80;;;;;;4922161;28;46300;-62
2022/11/16 18:05:31;;;;;;;;;;;23.10;47.80;;;;;;4935166;28;45218;-61
2022/11/16 18:07:56;;;;;;;;;;;23.10;47.80;;;;;;4952748;28;45690;-61
2022/11/16 18:10:23;;;;;;;;;;;23.10;47.90;;;;;;4949727;28;45505;-62
2022/11/16 18:12:48;;;;;;;;;;;23.00;48.00;;;;;;4953134;28;45882;-61
2022/11/16 18:15:16;;;;;;;;;;;22.90;48.00;;;;;;4953326;28;45124;-62
2022/11/16 18:17:42;;;;;;;;;;;22.90;48.00;;;;;;4949078;28;45401;-63
2022/11/16 18:20:08;;;;;;;;;;;22.90;48.10;;;;;;4939737;28;45569;-62
2022/11/16 18:22:34;;;;;;;;;;;22.80;48.20;;;;;;4917990;28;45787;-62
2022/11/16 18:25:00;;;;;;;;;;;22.70;48.30;;;;;;4951173;28;45365;-63
2022/11/16 18:27:26;;;;;;;;;;;22.70;48.40;;;;;;4952505;28;44688;-61
2022/11/16 18:29:52;;;;;;;;;;;22.60;48.40;;;;;;4951730;28;45201;-62
2022/11/16 18:32:17;;;;;;;;;;;22.60;48.50;;;;;;4943356;28;45376;-63
2022/11/16 18:34:43;;;;;;;;;;;22.50;48.50;;;;;;4922570;28;45277;-62
2022/11/16 18:37:08;;;;;;;;;;;22.50;48.60;;;;;;4945700;28;45534;-60
2022/11/16 18:39:33;;;;;;;;;;;22.50;48.60;;;;;;4950584;28;45640;-61
2022/11/16 18:41:59;;;;;;;;;;;22.50;48.60;;;;;;4947300;28;45416;-62
2022/11/16 18:44:25;;;;;;;;;;;22.40;48.60;;;;;;4951279;28;46126;-62